sensor_id;sensor_type;location;lat;lon;timestamp;temperature;humidity
6054;DHT22;3055;50.886;14.814;2023-02-14T00:02:16;5.30;99.90
6054;DHT22;3055;50.886;14.814;2023-02-14T00:04:43;5.30;99.90
6054;DHT22;3055;50.886;14.814;2023-02-14T00:07:12;5.30;99.90
6054;DHT22;3055;50.886;14.814;2023-02-14T00:09:40;5.30;99.90
6054;DHT22;3055;50.886;14.814;2023-02-14T00:12:08;5.40;99.90
6054;DHT22;3055;50.886;14.814;2023-02-14T00:14:35;5.50;99.90
6054;DHT22;3055;50.886;14.814;2023-02-14T00:17:20;5.50;99.90
6054;DHT22;3055;50.886;14.814;2023-02-14T00:19:47;5.50;99.90
6054;DHT22;3055;50.886;14.814;2023-02-14T00:22:15;5.50;99.90
6054;DHT22;3055;50.886;14.814;2023-02-14T00:24:42;5.40;99.90
6054;DHT22;3055;50.886;14.814;2023-02-14T00:27:10;5.40;99.90
6054;DHT22;3055;50.886;14.814;2023-02-14T00:29:37;5.40;99.90
6054;DHT22;3055;50.886;14.814;2023-02-14T00:32:04;5.40;99.90
6054;DHT22;3055;50.886;14.814;2023-02-14T00:34:31;5.40;99.90
6054;DHT22;3055;50.886;14.814;2023-02-14T00:37:19;5.40;99.90
6054;DHT22;3055;50.886;14.814;2023-02-14T00:40:05;5.30;99.90
6054;DHT22;3055;50.886;14.814;2023-02-14T00:42:34;5.20;99.90
6054;DHT22;3055;50.886;14.814;2023-02-14T00:45:01;5.20;99.90
6054;DHT22;3055;50.886;14.814;2023-02-14T00:47:28;5.20;99.90
6054;DHT22;3055;50.886;14.814;2023-02-14T00:49:55;5.20;99.90
6054;DHT22;3055;50.886;14.814;2023-02-14T00:52:27;5.20;99.90
6054;DHT22;3055;50.886;14.814;2023-02-14T00:54:54;5.20;99.90
6054;DHT22;3055;50.886;14.814;2023-02-14T00:57:22;5.20;99.90
6054;DHT22;3055;50.886;14.814;2023-02-14T00:59:50;5.10;99.90
6054;DHT22;3055;50.886;14.814;2023-02-14T01:02:20;5.10;99.90
6054;DHT22;3055;50.886;14.814;2023-02-14T01:04:47;5.10;99.90
6054;DHT22;3055;50.886;14.814;2023-02-14T01:07:14;5.10;99.90
6054;DHT22;3055;50.886;14.814;2023-02-14T01:09:41;5.10;99.90
6054;DHT22;3055;50.886;14.814;2023-02-14T01:12:08;5.20;99.90
6054;DHT22;3055;50.886;14.814;2023-02-14T01:14:35;5.10;99.90
6054;DHT22;3055;50.886;14.814;2023-02-14T01:17:04;5.10;99.90
6054;DHT22;3055;50.886;14.814;2023-02-14T01:19:31;5.10;99.90
6054;DHT22;3055;50.886;14.814;2023-02-14T01:21:58;5.10;99.90
6054;DHT22;3055;50.886;14.814;2023-02-14T01:24:25;5.20;99.90
6054;DHT22;3055;50.886;14.814;2023-02-14T01:26:52;5.20;99.90
6054;DHT22;3055;50.886;14.814;2023-02-14T01:29:19;5.30;99.90
6054;DHT22;3055;50.886;14.814;2023-02-14T01:31:46;5.30;99.90
6054;DHT22;3055;50.886;14.814;2023-02-14T01:34:15;5.30;99.90
6054;DHT22;3055;50.886;14.814;2023-02-14T01:36:42;5.30;99.90
6054;DHT22;3055;50.886;14.814;2023-02-14T01:39:11;5.30;99.90
6054;DHT22;3055;50.886;14.814;2023-02-14T01:41:40;5.30;99.90
6054;DHT22;3055;50.886;14.814;2023-02-14T01:47:13;5.10;99.90
6054;DHT22;3055;50.886;14.814;2023-02-14T01:49:47;5.10;99.90
6054;DHT22;3055;50.886;14.814;2023-02-14T01:52:19;5.10;99.90
6054;DHT22;3055;50.886;14.814;2023-02-14T01:54:52;5.10;99.90
6054;DHT22;3055;50.886;14.814;2023-02-14T01:57:22;5.00;99.90
6054;DHT22;3055;50.886;14.814;2023-02-14T01:59:52;5.10;99.90
6054;DHT22;3055;50.886;14.814;2023-02-14T02:02:41;5.20;99.90
6054;DHT22;3055;50.886;14.814;2023-02-14T02:05:10;5.10;99.90
6054;DHT22;3055;50.886;14.814;2023-02-14T02:07:38;5.10;99.90
6054;DHT22;3055;50.886;14.814;2023-02-14T02:10:06;5.10;99.90
6054;DHT22;3055;50.886;14.814;2023-02-14T02:12:34;5.10;99.90
6054;DHT22;3055;50.886;14.814;2023-02-14T02:15:04;5.30;99.90
6054;DHT22;3055;50.886;14.814;2023-02-14T02:17:39;5.20;99.90
6054;DHT22;3055;50.886;14.814;2023-02-14T02:20:34;5.10;99.90
6054;DHT22;3055;50.886;14.814;2023-02-14T02:23:35;5.00;99.90
6054;DHT22;3055;50.886;14.814;2023-02-14T02:26:43;4.90;99.90
6054;DHT22;3055;50.886;14.814;2023-02-14T02:29:47;5.00;99.90
6054;DHT22;3055;50.886;14.814;2023-02-14T02:32:40;5.00;99.90
6054;DHT22;3055;50.886;14.814;2023-02-14T02:38:25;5.10;99.90
6054;DHT22;3055;50.886;14.814;2023-02-14T02:41:03;5.10;99.90
6054;DHT22;3055;50.886;14.814;2023-02-14T02:43:43;5.00;99.90
6054;DHT22;3055;50.886;14.814;2023-02-14T02:46:20;5.00;99.90
6054;DHT22;3055;50.886;14.814;2023-02-14T02:49:12;5.00;99.90
6054;DHT22;3055;50.886;14.814;2023-02-14T02:52:08;4.90;99.90
6054;DHT22;3055;50.886;14.814;2023-02-14T02:54:59;4.90;99.90
6054;DHT22;3055;50.886;14.814;2023-02-14T02:57:33;4.90;99.90
6054;DHT22;3055;50.886;14.814;2023-02-14T03:00:02;4.90;99.90
6054;DHT22;3055;50.886;14.814;2023-02-14T03:02:33;5.00;99.90
6054;DHT22;3055;50.886;14.814;2023-02-14T03:05:22;4.90;99.90
6054;DHT22;3055;50.886;14.814;2023-02-14T03:07:50;4.90;99.90
6054;DHT22;3055;50.886;14.814;2023-02-14T03:10:19;4.90;99.90
6054;DHT22;3055;50.886;14.814;2023-02-14T03:19:16;5.00;99.90
6054;DHT22;3055;50.886;14.814;2023-02-14T03:21:53;5.10;99.90
6054;DHT22;3055;50.886;14.814;2023-02-14T03:24:28;5.10;99.90
6054;DHT22;3055;50.886;14.814;2023-02-14T03:27:03;5.10;99.90
6054;DHT22;3055;50.886;14.814;2023-02-14T03:29:40;5.10;99.90
6054;DHT22;3055;50.886;14.814;2023-02-14T03:32:14;5.10;99.90
6054;DHT22;3055;50.886;14.814;2023-02-14T03:34:50;5.10;99.90
6054;DHT22;3055;50.886;14.814;2023-02-14T03:37:23;5.10;99.90
6054;DHT22;3055;50.886;14.814;2023-02-14T03:39:58;5.10;99.90
6054;DHT22;3055;50.886;14.814;2023-02-14T03:42:31;5.10;99.90
6054;DHT22;3055;50.886;14.814;2023-02-14T03:45:00;5.00;99.90
6054;DHT22;3055;50.886;14.814;2023-02-14T03:47:31;5.00;99.90
6054;DHT22;3055;50.886;14.814;2023-02-14T03:50:03;5.00;99.90
6054;DHT22;3055;50.886;14.814;2023-02-14T03:52:33;5.00;99.90
6054;DHT22;3055;50.886;14.814;2023-02-14T03:55:05;5.00;99.90
6054;DHT22;3055;50.886;14.814;2023-02-14T03:57:39;5.00;99.90
6054;DHT22;3055;50.886;14.814;2023-02-14T04:00:09;5.10;99.90
6054;DHT22;3055;50.886;14.814;2023-02-14T04:02:38;5.10;99.90
6054;DHT22;3055;50.886;14.814;2023-02-14T04:05:11;5.20;99.90
6054;DHT22;3055;50.886;14.814;2023-02-14T04:07:47;5.20;99.90
6054;DHT22;3055;50.886;14.814;2023-02-14T04:10:16;5.30;99.90
6054;DHT22;3055;50.886;14.814;2023-02-14T04:12:44;5.10;99.90
6054;DHT22;3055;50.886;14.814;2023-02-14T04:15:12;5.20;99.90
6054;DHT22;3055;50.886;14.814;2023-02-14T04:17:39;5.20;99.90
6054;DHT22;3055;50.886;14.814;2023-02-14T04:20:24;5.10;99.90
6054;DHT22;3055;50.886;14.814;2023-02-14T04:22:51;5.10;99.90
6054;DHT22;3055;50.886;14.814;2023-02-14T04:25:21;5.10;99.90
6054;DHT22;3055;50.886;14.814;2023-02-14T04:27:48;5.10;99.90
6054;DHT22;3055;50.886;14.814;2023-02-14T04:30:15;5.10;99.90
6054;DHT22;3055;50.886;14.814;2023-02-14T04:32:45;5.10;99.90
6054;DHT22;3055;50.886;14.814;2023-02-14T04:35:12;5.10;99.90
6054;DHT22;3055;50.886;14.814;2023-02-14T04:37:40;5.00;99.90
6054;DHT22;3055;50.886;14.814;2023-02-14T04:40:08;5.00;99.90
6054;DHT22;3055;50.886;14.814;2023-02-14T04:42:37;5.00;99.90
6054;DHT22;3055;50.886;14.814;2023-02-14T04:45:04;4.90;99.90
6054;DHT22;3055;50.886;14.814;2023-02-14T04:47:31;4.90;99.90
6054;DHT22;3055;50.886;14.814;2023-02-14T04:49:58;4.90;99.90
6054;DHT22;3055;50.886;14.814;2023-02-14T04:52:25;4.90;99.90
6054;DHT22;3055;50.886;14.814;2023-02-14T04:54:52;4.90;99.90
6054;DHT22;3055;50.886;14.814;2023-02-14T04:57:19;4.90;99.90
6054;DHT22;3055;50.886;14.814;2023-02-14T04:59:48;5.00;99.90
6054;DHT22;3055;50.886;14.814;2023-02-14T05:02:15;5.10;99.90
6054;DHT22;3055;50.886;14.814;2023-02-14T05:04:42;5.10;99.90
6054;DHT22;3055;50.886;14.814;2023-02-14T05:07:09;5.00;99.90
6054;DHT22;3055;50.886;14.814;2023-02-14T05:09:36;5.00;99.90
6054;DHT22;3055;50.886;14.814;2023-02-14T05:12:03;5.00;99.90
6054;DHT22;3055;50.886;14.814;2023-02-14T05:14:30;5.00;99.90
6054;DHT22;3055;50.886;14.814;2023-02-14T05:16:59;5.00;99.90
6054;DHT22;3055;50.886;14.814;2023-02-14T05:19:26;4.90;99.90
6054;DHT22;3055;50.886;14.814;2023-02-14T05:21:56;4.90;99.90
6054;DHT22;3055;50.886;14.814;2023-02-14T05:24:23;4.90;99.90
6054;DHT22;3055;50.886;14.814;2023-02-14T05:26:50;4.80;99.90
6054;DHT22;3055;50.886;14.814;2023-02-14T05:29:17;4.80;99.90
6054;DHT22;3055;50.886;14.814;2023-02-14T05:31:45;4.80;99.90
6054;DHT22;3055;50.886;14.814;2023-02-14T05:34:13;4.90;99.90
6054;DHT22;3055;50.886;14.814;2023-02-14T05:36:40;4.90;99.90
6054;DHT22;3055;50.886;14.814;2023-02-14T05:39:07;5.00;99.90
6054;DHT22;3055;50.886;14.814;2023-02-14T05:41:34;5.00;99.90
6054;DHT22;3055;50.886;14.814;2023-02-14T05:44:01;4.90;99.90
6054;DHT22;3055;50.886;14.814;2023-02-14T05:46:28;5.00;99.90
6054;DHT22;3055;50.886;14.814;2023-02-14T05:48:55;5.00;99.90
6054;DHT22;3055;50.886;14.814;2023-02-14T05:51:24;4.90;99.90
6054;DHT22;3055;50.886;14.814;2023-02-14T05:53:51;4.90;99.90
6054;DHT22;3055;50.886;14.814;2023-02-14T05:56:18;4.90;99.90
6054;DHT22;3055;50.886;14.814;2023-02-14T05:58:45;4.90;99.90
6054;DHT22;3055;50.886;14.814;2023-02-14T06:01:12;4.90;99.90
6054;DHT22;3055;50.886;14.814;2023-02-14T06:03:39;4.90;99.90
6054;DHT22;3055;50.886;14.814;2023-02-14T06:06:07;4.90;99.90
6054;DHT22;3055;50.886;14.814;2023-02-14T06:08:35;4.90;99.90
6054;DHT22;3055;50.886;14.814;2023-02-14T06:11:02;4.90;99.90
6054;DHT22;3055;50.886;14.814;2023-02-14T06:13:29;4.90;99.90
6054;DHT22;3055;50.886;14.814;2023-02-14T06:15:56;4.90;99.90
6054;DHT22;3055;50.886;14.814;2023-02-14T06:18:23;4.90;99.90
6054;DHT22;3055;50.886;14.814;2023-02-14T06:20:53;4.80;99.90
6054;DHT22;3055;50.886;14.814;2023-02-14T06:23:20;4.80;99.90
6054;DHT22;3055;50.886;14.814;2023-02-14T06:25:48;4.90;99.90
6054;DHT22;3055;50.886;14.814;2023-02-14T06:28:15;4.90;99.90
6054;DHT22;3055;50.886;14.814;2023-02-14T06:30:42;4.90;99.90
6054;DHT22;3055;50.886;14.814;2023-02-14T06:33:11;4.90;99.90
6054;DHT22;3055;50.886;14.814;2023-02-14T06:35:38;4.90;99.90
6054;DHT22;3055;50.886;14.814;2023-02-14T06:38:05;5.10;97.70
6054;DHT22;3055;50.886;14.814;2023-02-14T06:40:32;5.10;92.10
6054;DHT22;3055;50.886;14.814;2023-02-14T06:43:01;5.00;94.80
6054;DHT22;3055;50.886;14.814;2023-02-14T06:45:28;5.00;99.70
6054;DHT22;3055;50.886;14.814;2023-02-14T06:47:58;5.00;94.70
6054;DHT22;3055;50.886;14.814;2023-02-14T06:50:25;5.00;95.20
6054;DHT22;3055;50.886;14.814;2023-02-14T06:52:52;5.00;99.50
6054;DHT22;3055;50.886;14.814;2023-02-14T06:55:19;5.00;99.90
6054;DHT22;3055;50.886;14.814;2023-02-14T06:57:46;5.00;99.90
6054;DHT22;3055;50.886;14.814;2023-02-14T07:00:15;4.90;99.90
6054;DHT22;3055;50.886;14.814;2023-02-14T07:02:43;4.90;99.90
6054;DHT22;3055;50.886;14.814;2023-02-14T07:05:10;4.90;99.90
6054;DHT22;3055;50.886;14.814;2023-02-14T07:07:37;4.90;99.90
6054;DHT22;3055;50.886;14.814;2023-02-14T07:10:05;5.00;99.90
6054;DHT22;3055;50.886;14.814;2023-02-14T07:12:32;5.10;99.90
6054;DHT22;3055;50.886;14.814;2023-02-14T07:14:59;5.10;99.90
6054;DHT22;3055;50.886;14.814;2023-02-14T07:17:28;5.10;99.90
6054;DHT22;3055;50.886;14.814;2023-02-14T07:19:55;5.10;99.90
6054;DHT22;3055;50.886;14.814;2023-02-14T07:22:22;5.10;99.90
6054;DHT22;3055;50.886;14.814;2023-02-14T07:24:49;5.20;99.90
6054;DHT22;3055;50.886;14.814;2023-02-14T07:27:16;5.30;96.00
6054;DHT22;3055;50.886;14.814;2023-02-14T07:29:43;5.30;89.00
6054;DHT22;3055;50.886;14.814;2023-02-14T07:32:10;5.40;58.10
6054;DHT22;3055;50.886;14.814;2023-02-14T07:34:38;5.40;54.60
6054;DHT22;3055;50.886;14.814;2023-02-14T07:37:05;5.40;62.90
6054;DHT22;3055;50.886;14.814;2023-02-14T07:39:33;5.40;71.00
6054;DHT22;3055;50.886;14.814;2023-02-14T07:42:00;5.40;76.20
6054;DHT22;3055;50.886;14.814;2023-02-14T07:44:27;5.40;82.50
6054;DHT22;3055;50.886;14.814;2023-02-14T07:46:54;5.50;69.80
6054;DHT22;3055;50.886;14.814;2023-02-14T07:49:21;5.60;42.90
6054;DHT22;3055;50.886;14.814;2023-02-14T07:51:49;5.60;19.50
6054;DHT22;3055;50.886;14.814;2023-02-14T07:54:16;5.60;24.90
6054;DHT22;3055;50.886;14.814;2023-02-14T07:56:43;5.60;29.70
6054;DHT22;3055;50.886;14.814;2023-02-14T07:59:11;5.70;24.90
6054;DHT22;3055;50.886;14.814;2023-02-14T08:01:38;5.70;28.70
6054;DHT22;3055;50.886;14.814;2023-02-14T08:04:05;5.70;35.80
6054;DHT22;3055;50.886;14.814;2023-02-14T08:06:32;5.80;26.00
6054;DHT22;3055;50.886;14.814;2023-02-14T08:09:00;5.90;5.50
6054;DHT22;3055;50.886;14.814;2023-02-14T08:11:27;5.90;7.30
6054;DHT22;3055;50.886;14.814;2023-02-14T08:14:11;5.90;13.50
6054;DHT22;3055;50.886;14.814;2023-02-14T08:16:38;5.90;15.60
6054;DHT22;3055;50.886;14.814;2023-02-14T08:19:06;6.00;15.70
6054;DHT22;3055;50.886;14.814;2023-02-14T08:21:33;6.00;17.40
6054;DHT22;3055;50.886;14.814;2023-02-14T08:24:01;6.00;14.90
6054;DHT22;3055;50.886;14.814;2023-02-14T08:26:28;6.00;1.00
6054;DHT22;3055;50.886;14.814;2023-02-14T08:28:56;6.00;3.30
6054;DHT22;3055;50.886;14.814;2023-02-14T08:31:24;6.00;1.00
6054;DHT22;3055;50.886;14.814;2023-02-14T08:33:51;6.10;1.00
6054;DHT22;3055;50.886;14.814;2023-02-14T08:36:18;6.10;1.00
6054;DHT22;3055;50.886;14.814;2023-02-14T08:38:48;6.10;1.00
6054;DHT22;3055;50.886;14.814;2023-02-14T08:41:17;6.20;1.00
6054;DHT22;3055;50.886;14.814;2023-02-14T08:43:44;6.30;1.00
6054;DHT22;3055;50.886;14.814;2023-02-14T08:46:11;6.30;1.00
6054;DHT22;3055;50.886;14.814;2023-02-14T08:48:39;6.30;1.00
6054;DHT22;3055;50.886;14.814;2023-02-14T08:51:07;6.40;1.00
6054;DHT22;3055;50.886;14.814;2023-02-14T08:53:35;6.50;1.00
6054;DHT22;3055;50.886;14.814;2023-02-14T08:56:03;6.50;1.00
6054;DHT22;3055;50.886;14.814;2023-02-14T08:58:31;6.60;1.00
6054;DHT22;3055;50.886;14.814;2023-02-14T09:01:00;6.50;1.00
6054;DHT22;3055;50.886;14.814;2023-02-14T09:03:27;6.40;1.00
6054;DHT22;3055;50.886;14.814;2023-02-14T09:05:54;6.40;1.00
6054;DHT22;3055;50.886;14.814;2023-02-14T09:08:21;6.50;1.00
6054;DHT22;3055;50.886;14.814;2023-02-14T09:10:48;6.50;1.00
6054;DHT22;3055;50.886;14.814;2023-02-14T09:13:16;6.60;24.50
6054;DHT22;3055;50.886;14.814;2023-02-14T09:15:45;6.70;15.20
6054;DHT22;3055;50.886;14.814;2023-02-14T09:18:12;6.70;1.00
6054;DHT22;3055;50.886;14.814;2023-02-14T09:20:40;6.70;1.00
6054;DHT22;3055;50.886;14.814;2023-02-14T09:23:09;6.90;1.00
6054;DHT22;3055;50.886;14.814;2023-02-14T09:25:36;7.00;1.00
6054;DHT22;3055;50.886;14.814;2023-02-14T09:28:03;7.10;1.00
6054;DHT22;3055;50.886;14.814;2023-02-14T09:30:30;7.10;1.00
6054;DHT22;3055;50.886;14.814;2023-02-14T09:32:58;7.10;1.00
6054;DHT22;3055;50.886;14.814;2023-02-14T09:35:28;7.10;1.00
6054;DHT22;3055;50.886;14.814;2023-02-14T09:37:56;7.10;1.00
6054;DHT22;3055;50.886;14.814;2023-02-14T09:40:23;7.10;1.00
6054;DHT22;3055;50.886;14.814;2023-02-14T09:42:58;7.10;1.00
6054;DHT22;3055;50.886;14.814;2023-02-14T09:45:28;7.10;1.00
6054;DHT22;3055;50.886;14.814;2023-02-14T09:48:01;7.10;1.00
6054;DHT22;3055;50.886;14.814;2023-02-14T09:50:32;7.10;1.00
6054;DHT22;3055;50.886;14.814;2023-02-14T09:53:03;7.10;1.00
6054;DHT22;3055;50.886;14.814;2023-02-14T09:55:37;7.10;1.00
6054;DHT22;3055;50.886;14.814;2023-02-14T09:58:13;7.10;1.00
6054;DHT22;3055;50.886;14.814;2023-02-14T10:00:45;7.10;99.90
6054;DHT22;3055;50.886;14.814;2023-02-14T10:03:44;7.10;99.90
6054;DHT22;3055;50.886;14.814;2023-02-14T10:06:25;7.10;1.00
6054;DHT22;3055;50.886;14.814;2023-02-14T10:09:05;7.20;99.90
6054;DHT22;3055;50.886;14.814;2023-02-14T10:11:34;7.20;99.90
6054;DHT22;3055;50.886;14.814;2023-02-14T10:14:07;7.20;99.90
6054;DHT22;3055;50.886;14.814;2023-02-14T10:16:41;7.20;99.90
6054;DHT22;3055;50.886;14.814;2023-02-14T10:19:18;7.20;99.90
6054;DHT22;3055;50.886;14.814;2023-02-14T10:21:51;7.30;99.90
6054;DHT22;3055;50.886;14.814;2023-02-14T10:24:24;7.30;99.90
6054;DHT22;3055;50.886;14.814;2023-02-14T10:26:55;7.30;99.90
6054;DHT22;3055;50.886;14.814;2023-02-14T10:29:24;7.30;99.90
6054;DHT22;3055;50.886;14.814;2023-02-14T10:31:53;7.30;99.90
6054;DHT22;3055;50.886;14.814;2023-02-14T10:34:32;7.30;99.90
6054;DHT22;3055;50.886;14.814;2023-02-14T10:37:13;7.30;99.90
6054;DHT22;3055;50.886;14.814;2023-02-14T10:40:05;7.30;99.90
6054;DHT22;3055;50.886;14.814;2023-02-14T10:42:46;7.20;99.90
6054;DHT22;3055;50.886;14.814;2023-02-14T10:45:22;7.10;99.90
6054;DHT22;3055;50.886;14.814;2023-02-14T10:47:57;7.10;99.90
6054;DHT22;3055;50.886;14.814;2023-02-14T10:50:31;7.10;99.90
6054;DHT22;3055;50.886;14.814;2023-02-14T10:53:08;7.10;99.90
6054;DHT22;3055;50.886;14.814;2023-02-14T10:55:43;7.10;1.00
6054;DHT22;3055;50.886;14.814;2023-02-14T10:58:15;7.10;99.90
6054;DHT22;3055;50.886;14.814;2023-02-14T11:00:51;7.10;99.90
6054;DHT22;3055;50.886;14.814;2023-02-14T11:03:19;7.00;99.90
6054;DHT22;3055;50.886;14.814;2023-02-14T11:05:48;7.10;99.90
6054;DHT22;3055;50.886;14.814;2023-02-14T11:08:21;7.20;99.90
6054;DHT22;3055;50.886;14.814;2023-02-14T11:10:49;7.30;99.90
6054;DHT22;3055;50.886;14.814;2023-02-14T11:13:29;7.40;99.90
6054;DHT22;3055;50.886;14.814;2023-02-14T11:16:02;7.40;99.90
6054;DHT22;3055;50.886;14.814;2023-02-14T11:18:30;7.30;99.90
6054;DHT22;3055;50.886;14.814;2023-02-14T11:21:09;7.40;99.90
6054;DHT22;3055;50.886;14.814;2023-02-14T11:23:39;7.50;99.90
6054;DHT22;3055;50.886;14.814;2023-02-14T11:26:16;7.50;99.90
6054;DHT22;3055;50.886;14.814;2023-02-14T11:28:50;7.40;99.90
6054;DHT22;3055;50.886;14.814;2023-02-14T11:31:27;7.50;99.90
6054;DHT22;3055;50.886;14.814;2023-02-14T11:33:55;7.50;99.90
6054;DHT22;3055;50.886;14.814;2023-02-14T11:36:25;7.50;99.90
6054;DHT22;3055;50.886;14.814;2023-02-14T11:39:02;7.60;99.90
6054;DHT22;3055;50.886;14.814;2023-02-14T11:41:45;7.60;99.90
6054;DHT22;3055;50.886;14.814;2023-02-14T11:44:15;7.70;99.90
6054;DHT22;3055;50.886;14.814;2023-02-14T11:46:47;7.90;99.90
6054;DHT22;3055;50.886;14.814;2023-02-14T11:49:28;7.80;99.90
6054;DHT22;3055;50.886;14.814;2023-02-14T11:51:59;7.90;99.90
6054;DHT22;3055;50.886;14.814;2023-02-14T11:54:31;8.00;99.90
6054;DHT22;3055;50.886;14.814;2023-02-14T11:57:04;8.00;99.90
6054;DHT22;3055;50.886;14.814;2023-02-14T11:59:36;8.00;99.90
6054;DHT22;3055;50.886;14.814;2023-02-14T12:02:17;7.90;99.90
6054;DHT22;3055;50.886;14.814;2023-02-14T12:04:46;8.00;99.90
6054;DHT22;3055;50.886;14.814;2023-02-14T12:07:19;8.00;99.90
6054;DHT22;3055;50.886;14.814;2023-02-14T12:09:47;8.10;99.90
6054;DHT22;3055;50.886;14.814;2023-02-14T12:12:30;8.10;99.90
6054;DHT22;3055;50.886;14.814;2023-02-14T12:15:20;8.20;99.90
6054;DHT22;3055;50.886;14.814;2023-02-14T12:17:52;8.10;99.90
6054;DHT22;3055;50.886;14.814;2023-02-14T12:20:25;8.20;99.90
6054;DHT22;3055;50.886;14.814;2023-02-14T12:23:06;8.20;99.90
6054;DHT22;3055;50.886;14.814;2023-02-14T12:25:41;8.10;99.90
6054;DHT22;3055;50.886;14.814;2023-02-14T12:28:13;8.10;99.90
6054;DHT22;3055;50.886;14.814;2023-02-14T12:30:41;8.10;99.90
6054;DHT22;3055;50.886;14.814;2023-02-14T12:33:14;8.10;99.90
6054;DHT22;3055;50.886;14.814;2023-02-14T12:35:50;8.10;99.90
6054;DHT22;3055;50.886;14.814;2023-02-14T12:38:28;8.10;99.90
6054;DHT22;3055;50.886;14.814;2023-02-14T12:41:05;8.10;99.90
6054;DHT22;3055;50.886;14.814;2023-02-14T12:43:44;8.10;99.90
6054;DHT22;3055;50.886;14.814;2023-02-14T12:49:30;7.90;99.90
6054;DHT22;3055;50.886;14.814;2023-02-14T12:52:07;7.90;99.90
6054;DHT22;3055;50.886;14.814;2023-02-14T12:54:56;7.90;99.90
6054;DHT22;3055;50.886;14.814;2023-02-14T12:57:32;8.00;99.90
6054;DHT22;3055;50.886;14.814;2023-02-14T13:00:13;8.00;99.90
6054;DHT22;3055;50.886;14.814;2023-02-14T13:05:49;7.90;99.90
6054;DHT22;3055;50.886;14.814;2023-02-14T13:08:28;8.00;99.90
6054;DHT22;3055;50.886;14.814;2023-02-14T13:11:10;8.10;99.90
6054;DHT22;3055;50.886;14.814;2023-02-14T13:13:52;8.10;99.90
6054;DHT22;3055;50.886;14.814;2023-02-14T13:16:32;8.10;99.90
6054;DHT22;3055;50.886;14.814;2023-02-14T13:19:08;8.20;99.90
6054;DHT22;3055;50.886;14.814;2023-02-14T13:21:39;8.10;99.90
6054;DHT22;3055;50.886;14.814;2023-02-14T13:24:14;8.10;99.90
6054;DHT22;3055;50.886;14.814;2023-02-14T13:26:47;8.10;99.90
6054;DHT22;3055;50.886;14.814;2023-02-14T13:29:17;8.10;99.90
6054;DHT22;3055;50.886;14.814;2023-02-14T13:31:45;8.20;99.90
6054;DHT22;3055;50.886;14.814;2023-02-14T13:34:20;8.20;99.90
6054;DHT22;3055;50.886;14.814;2023-02-14T13:36:50;8.20;99.90
6054;DHT22;3055;50.886;14.814;2023-02-14T13:39:24;8.00;99.90
6054;DHT22;3055;50.886;14.814;2023-02-14T13:41:54;7.80;99.90
6054;DHT22;3055;50.886;14.814;2023-02-14T13:44:41;7.80;99.90
6054;DHT22;3055;50.886;14.814;2023-02-14T13:47:15;7.80;99.90
6054;DHT22;3055;50.886;14.814;2023-02-14T13:49:48;7.80;99.90
6054;DHT22;3055;50.886;14.814;2023-02-14T13:52:37;7.70;99.90
6054;DHT22;3055;50.886;14.814;2023-02-14T13:55:06;7.70;99.90
6054;DHT22;3055;50.886;14.814;2023-02-14T13:57:36;7.80;99.90
6054;DHT22;3055;50.886;14.814;2023-02-14T14:00:37;7.80;99.90
6054;DHT22;3055;50.886;14.814;2023-02-14T14:03:05;7.80;99.90
6054;DHT22;3055;50.886;14.814;2023-02-14T14:06:00;7.80;99.90
6054;DHT22;3055;50.886;14.814;2023-02-14T14:08:47;7.90;99.90
6054;DHT22;3055;50.886;14.814;2023-02-14T14:14:29;7.80;99.90
6054;DHT22;3055;50.886;14.814;2023-02-14T14:17:01;7.90;99.90
6054;DHT22;3055;50.886;14.814;2023-02-14T14:19:36;8.00;99.90
6054;DHT22;3055;50.886;14.814;2023-02-14T14:22:07;8.00;99.90
6054;DHT22;3055;50.886;14.814;2023-02-14T14:24:35;8.00;99.90
6054;DHT22;3055;50.886;14.814;2023-02-14T14:27:11;7.90;99.90
6054;DHT22;3055;50.886;14.814;2023-02-14T14:29:45;7.90;99.90
6054;DHT22;3055;50.886;14.814;2023-02-14T14:32:17;7.90;99.90
6054;DHT22;3055;50.886;14.814;2023-02-14T14:34:49;7.90;99.90
6054;DHT22;3055;50.886;14.814;2023-02-14T14:37:19;7.80;99.90
6054;DHT22;3055;50.886;14.814;2023-02-14T14:39:51;7.70;99.90
6054;DHT22;3055;50.886;14.814;2023-02-14T14:42:20;7.70;99.90
6054;DHT22;3055;50.886;14.814;2023-02-14T14:44:52;7.50;99.90
6054;DHT22;3055;50.886;14.814;2023-02-14T14:47:21;7.40;99.90
6054;DHT22;3055;50.886;14.814;2023-02-14T14:49:50;7.50;99.90
6054;DHT22;3055;50.886;14.814;2023-02-14T14:52:28;7.50;99.90
6054;DHT22;3055;50.886;14.814;2023-02-14T14:54:57;7.50;99.90
6054;DHT22;3055;50.886;14.814;2023-02-14T14:57:24;7.40;99.90
6054;DHT22;3055;50.886;14.814;2023-02-14T15:00:18;7.40;99.90
6054;DHT22;3055;50.886;14.814;2023-02-14T15:02:57;7.30;99.90
6054;DHT22;3055;50.886;14.814;2023-02-14T15:05:27;7.30;99.90
6054;DHT22;3055;50.886;14.814;2023-02-14T15:07:54;7.30;99.90
6054;DHT22;3055;50.886;14.814;2023-02-14T15:10:25;7.30;99.90
6054;DHT22;3055;50.886;14.814;2023-02-14T15:12:54;7.20;99.90
6054;DHT22;3055;50.886;14.814;2023-02-14T15:15:42;7.10;99.90
6054;DHT22;3055;50.886;14.814;2023-02-14T15:18:13;7.10;99.90
6054;DHT22;3055;50.886;14.814;2023-02-14T15:20:41;7.10;99.90
6054;DHT22;3055;50.886;14.814;2023-02-14T15:23:15;7.00;99.90
6054;DHT22;3055;50.886;14.814;2023-02-14T15:25:45;6.90;99.90
6054;DHT22;3055;50.886;14.814;2023-02-14T15:28:14;6.90;99.90
6054;DHT22;3055;50.886;14.814;2023-02-14T15:30:57;6.80;99.90
6054;DHT22;3055;50.886;14.814;2023-02-14T15:33:25;6.80;99.90
6054;DHT22;3055;50.886;14.814;2023-02-14T15:35:52;6.70;99.90
6054;DHT22;3055;50.886;14.814;2023-02-14T15:38:21;6.60;99.90
6054;DHT22;3055;50.886;14.814;2023-02-14T15:40:50;6.60;99.90
6054;DHT22;3055;50.886;14.814;2023-02-14T15:43:25;6.60;99.90
6054;DHT22;3055;50.886;14.814;2023-02-14T15:45:58;6.50;99.90
6054;DHT22;3055;50.886;14.814;2023-02-14T15:48:28;6.50;99.90
6054;DHT22;3055;50.886;14.814;2023-02-14T15:50:56;6.50;99.90
6054;DHT22;3055;50.886;14.814;2023-02-14T15:53:38;6.40;99.90
6054;DHT22;3055;50.886;14.814;2023-02-14T15:56:09;6.30;99.90
6054;DHT22;3055;50.886;14.814;2023-02-14T15:58:38;6.30;99.90
6054;DHT22;3055;50.886;14.814;2023-02-14T16:01:07;6.20;99.90
6054;DHT22;3055;50.886;14.814;2023-02-14T16:03:37;6.10;99.90
6054;DHT22;3055;50.886;14.814;2023-02-14T16:06:15;6.10;1.00
6054;DHT22;3055;50.886;14.814;2023-02-14T16:08:55;6.00;1.00
6054;DHT22;3055;50.886;14.814;2023-02-14T16:11:27;6.00;1.00
6054;DHT22;3055;50.886;14.814;2023-02-14T16:13:55;6.00;1.00
6054;DHT22;3055;50.886;14.814;2023-02-14T16:16:23;5.90;1.00
6054;DHT22;3055;50.886;14.814;2023-02-14T16:18:52;5.90;1.00
6054;DHT22;3055;50.886;14.814;2023-02-14T16:21:23;5.80;1.00
6054;DHT22;3055;50.886;14.814;2023-02-14T16:24:18;5.70;1.00
6054;DHT22;3055;50.886;14.814;2023-02-14T16:26:45;5.60;1.00
6054;DHT22;3055;50.886;14.814;2023-02-14T16:29:13;5.50;20.50
6054;DHT22;3055;50.886;14.814;2023-02-14T16:31:44;5.30;77.00
6054;DHT22;3055;50.886;14.814;2023-02-14T16:34:13;5.20;99.90
6054;DHT22;3055;50.886;14.814;2023-02-14T16:36:41;5.00;1.00
6054;DHT22;3055;50.886;14.814;2023-02-14T16:39:13;4.90;99.90
6054;DHT22;3055;50.886;14.814;2023-02-14T16:41:42;4.70;1.00
6054;DHT22;3055;50.886;14.814;2023-02-14T16:44:12;4.50;99.90
6054;DHT22;3055;50.886;14.814;2023-02-14T16:46:39;4.30;99.90
6054;DHT22;3055;50.886;14.814;2023-02-14T16:49:08;4.20;99.90
6054;DHT22;3055;50.886;14.814;2023-02-14T16:51:35;4.00;99.90
6054;DHT22;3055;50.886;14.814;2023-02-14T16:54:05;3.90;1.00
6054;DHT22;3055;50.886;14.814;2023-02-14T16:56:38;3.80;1.00